sensor_id;sensor_type;location;lat;lon;timestamp;temperature;humidity
10390;DHT22;5241;47.830;12.972;2023-04-08T00:00:36;5.70;99.90
10390;DHT22;5241;47.830;12.972;2023-04-08T00:03:02;5.60;99.90
10390;DHT22;5241;47.830;12.972;2023-04-08T00:05:27;5.50;99.90
10390;DHT22;5241;47.830;12.972;2023-04-08T00:07:53;5.50;99.90
10390;DHT22;5241;47.830;12.972;2023-04-08T00:10:19;5.30;99.90
10390;DHT22;5241;47.830;12.972;2023-04-08T00:12:46;5.20;99.90
10390;DHT22;5241;47.830;12.972;2023-04-08T00:15:11;5.10;99.90
10390;DHT22;5241;47.830;12.972;2023-04-08T00:17:37;5.00;99.90
10390;DHT22;5241;47.830;12.972;2023-04-08T00:20:03;4.90;99.90
10390;DHT22;5241;47.830;12.972;2023-04-08T00:22:28;5.00;99.90
10390;DHT22;5241;47.830;12.972;2023-04-08T00:24:56;4.90;99.90
10390;DHT22;5241;47.830;12.972;2023-04-08T00:27:21;4.80;99.90
10390;DHT22;5241;47.830;12.972;2023-04-08T00:29:49;4.80;99.90
10390;DHT22;5241;47.830;12.972;2023-04-08T00:32:15;4.70;99.90
10390;DHT22;5241;47.830;12.972;2023-04-08T00:34:40;4.60;99.90
10390;DHT22;5241;47.830;12.972;2023-04-08T00:37:06;4.90;99.90
10390;DHT22;5241;47.830;12.972;2023-04-08T00:39:32;5.10;99.90
10390;DHT22;5241;47.830;12.972;2023-04-08T00:41:57;5.20;99.90
10390;DHT22;5241;47.830;12.972;2023-04-08T00:44:23;5.30;99.90
10390;DHT22;5241;47.830;12.972;2023-04-08T00:46:48;5.30;99.90
10390;DHT22;5241;47.830;12.972;2023-04-08T00:49:14;5.30;99.90
10390;DHT22;5241;47.830;12.972;2023-04-08T00:51:40;5.40;99.90
10390;DHT22;5241;47.830;12.972;2023-04-08T00:54:05;5.50;99.90
10390;DHT22;5241;47.830;12.972;2023-04-08T00:56:32;5.60;99.90
10390;DHT22;5241;47.830;12.972;2023-04-08T00:58:59;5.70;99.90
10390;DHT22;5241;47.830;12.972;2023-04-08T01:04:42;5.60;99.90
10390;DHT22;5241;47.830;12.972;2023-04-08T01:07:16;5.60;99.90
10390;DHT22;5241;47.830;12.972;2023-04-08T01:09:49;5.70;99.90
10390;DHT22;5241;47.830;12.972;2023-04-08T01:12:27;5.70;99.90
10390;DHT22;5241;47.830;12.972;2023-04-08T01:14:58;5.80;99.90
10390;DHT22;5241;47.830;12.972;2023-04-08T01:17:26;5.80;99.90
10390;DHT22;5241;47.830;12.972;2023-04-08T01:19:53;5.80;99.90
10390;DHT22;5241;47.830;12.972;2023-04-08T01:25:14;5.80;99.90
10390;DHT22;5241;47.830;12.972;2023-04-08T01:27:42;5.70;99.90
10390;DHT22;5241;47.830;12.972;2023-04-08T01:30:08;5.70;99.90
10390;DHT22;5241;47.830;12.972;2023-04-08T01:32:34;5.70;99.90
10390;DHT22;5241;47.830;12.972;2023-04-08T01:35:01;5.70;99.90
10390;DHT22;5241;47.830;12.972;2023-04-08T01:37:28;5.70;99.90
10390;DHT22;5241;47.830;12.972;2023-04-08T01:39:55;5.80;99.90
10390;DHT22;5241;47.830;12.972;2023-04-08T01:42:26;5.80;99.90
10390;DHT22;5241;47.830;12.972;2023-04-08T01:44:55;5.80;99.90
10390;DHT22;5241;47.830;12.972;2023-04-08T01:47:21;5.80;99.90
10390;DHT22;5241;47.830;12.972;2023-04-08T01:49:51;5.80;99.90
10390;DHT22;5241;47.830;12.972;2023-04-08T01:52:19;5.80;99.90
10390;DHT22;5241;47.830;12.972;2023-04-08T01:54:45;5.60;99.90
10390;DHT22;5241;47.830;12.972;2023-04-08T01:57:16;5.60;99.90
10390;DHT22;5241;47.830;12.972;2023-04-08T01:59:47;5.50;99.90
10390;DHT22;5241;47.830;12.972;2023-04-08T02:02:15;5.40;99.90
10390;DHT22;5241;47.830;12.972;2023-04-08T02:04:41;5.40;99.90
10390;DHT22;5241;47.830;12.972;2023-04-08T02:07:07;5.30;99.90
10390;DHT22;5241;47.830;12.972;2023-04-08T02:09:33;5.20;99.90
10390;DHT22;5241;47.830;12.972;2023-04-08T02:11:59;5.30;99.90
10390;DHT22;5241;47.830;12.972;2023-04-08T02:14:26;5.30;99.90
10390;DHT22;5241;47.830;12.972;2023-04-08T02:17:00;5.20;99.90
10390;DHT22;5241;47.830;12.972;2023-04-08T02:25:03;5.20;99.90
10390;DHT22;5241;47.830;12.972;2023-04-08T02:27:33;5.30;99.90
10390;DHT22;5241;47.830;12.972;2023-04-08T02:30:01;5.40;99.90
10390;DHT22;5241;47.830;12.972;2023-04-08T02:32:28;5.60;99.90
10390;DHT22;5241;47.830;12.972;2023-04-08T02:34:55;5.60;99.90
10390;DHT22;5241;47.830;12.972;2023-04-08T02:37:22;5.50;99.90
10390;DHT22;5241;47.830;12.972;2023-04-08T02:39:48;5.60;99.90
10390;DHT22;5241;47.830;12.972;2023-04-08T02:42:13;5.60;99.90
10390;DHT22;5241;47.830;12.972;2023-04-08T02:44:39;5.60;99.90
10390;DHT22;5241;47.830;12.972;2023-04-08T02:47:05;5.60;99.90
10390;DHT22;5241;47.830;12.972;2023-04-08T02:49:30;5.60;99.90
10390;DHT22;5241;47.830;12.972;2023-04-08T02:51:56;5.60;99.90
10390;DHT22;5241;47.830;12.972;2023-04-08T02:54:21;5.60;99.90
10390;DHT22;5241;47.830;12.972;2023-04-08T02:56:47;5.60;99.90
10390;DHT22;5241;47.830;12.972;2023-04-08T02:59:13;5.60;99.90
10390;DHT22;5241;47.830;12.972;2023-04-08T03:01:38;5.60;99.90
10390;DHT22;5241;47.830;12.972;2023-04-08T03:04:04;5.70;99.90
10390;DHT22;5241;47.830;12.972;2023-04-08T03:06:29;5.70;99.90
10390;DHT22;5241;47.830;12.972;2023-04-08T03:08:56;5.80;99.90
10390;DHT22;5241;47.830;12.972;2023-04-08T03:11:22;6.10;99.90
10390;DHT22;5241;47.830;12.972;2023-04-08T03:13:47;6.20;99.90
10390;DHT22;5241;47.830;12.972;2023-04-08T03:16:13;6.30;99.90
10390;DHT22;5241;47.830;12.972;2023-04-08T03:18:38;6.40;99.90
10390;DHT22;5241;47.830;12.972;2023-04-08T03:21:04;6.40;99.90
10390;DHT22;5241;47.830;12.972;2023-04-08T03:23:29;6.40;99.90
10390;DHT22;5241;47.830;12.972;2023-04-08T03:25:55;6.40;99.90
10390;DHT22;5241;47.830;12.972;2023-04-08T03:28:20;6.50;99.90
10390;DHT22;5241;47.830;12.972;2023-04-08T03:30:46;6.60;99.90
10390;DHT22;5241;47.830;12.972;2023-04-08T03:33:11;6.60;99.90
10390;DHT22;5241;47.830;12.972;2023-04-08T03:35:37;6.50;99.90
10390;DHT22;5241;47.830;12.972;2023-04-08T03:38:03;6.40;99.90
10390;DHT22;5241;47.830;12.972;2023-04-08T03:40:29;6.40;99.90
10390;DHT22;5241;47.830;12.972;2023-04-08T03:42:54;6.60;99.90
10390;DHT22;5241;47.830;12.972;2023-04-08T03:45:20;6.60;99.90
10390;DHT22;5241;47.830;12.972;2023-04-08T03:47:45;6.60;99.90
10390;DHT22;5241;47.830;12.972;2023-04-08T03:50:11;6.70;99.90
10390;DHT22;5241;47.830;12.972;2023-04-08T03:52:36;6.70;99.90
10390;DHT22;5241;47.830;12.972;2023-04-08T03:55:02;6.70;99.90
10390;DHT22;5241;47.830;12.972;2023-04-08T03:57:28;6.70;99.90
10390;DHT22;5241;47.830;12.972;2023-04-08T03:59:53;6.80;99.90
10390;DHT22;5241;47.830;12.972;2023-04-08T04:02:19;6.80;99.90
10390;DHT22;5241;47.830;12.972;2023-04-08T04:04:44;6.80;99.90
10390;DHT22;5241;47.830;12.972;2023-04-08T04:07:10;6.80;99.90
10390;DHT22;5241;47.830;12.972;2023-04-08T04:09:35;6.90;99.90
10390;DHT22;5241;47.830;12.972;2023-04-08T04:12:01;6.90;99.90
10390;DHT22;5241;47.830;12.972;2023-04-08T04:14:26;6.90;99.90
10390;DHT22;5241;47.830;12.972;2023-04-08T04:16:52;7.00;99.90
10390;DHT22;5241;47.830;12.972;2023-04-08T04:19:17;7.00;99.90
10390;DHT22;5241;47.830;12.972;2023-04-08T04:21:43;7.00;99.90
10390;DHT22;5241;47.830;12.972;2023-04-08T04:24:09;7.00;99.90
10390;DHT22;5241;47.830;12.972;2023-04-08T04:26:34;7.00;99.90
10390;DHT22;5241;47.830;12.972;2023-04-08T04:29:00;7.00;99.90
10390;DHT22;5241;47.830;12.972;2023-04-08T04:31:25;7.00;99.90
10390;DHT22;5241;47.830;12.972;2023-04-08T04:33:51;7.00;99.90
10390;DHT22;5241;47.830;12.972;2023-04-08T04:36:17;7.00;99.90
10390;DHT22;5241;47.830;12.972;2023-04-08T04:38:43;7.00;99.90
10390;DHT22;5241;47.830;12.972;2023-04-08T04:41:08;7.00;99.90
10390;DHT22;5241;47.830;12.972;2023-04-08T04:43:34;7.00;99.90
10390;DHT22;5241;47.830;12.972;2023-04-08T04:46:00;7.00;99.90
10390;DHT22;5241;47.830;12.972;2023-04-08T04:48:26;7.00;99.90
10390;DHT22;5241;47.830;12.972;2023-04-08T04:50:56;7.10;99.90
10390;DHT22;5241;47.830;12.972;2023-04-08T04:53:22;7.10;99.90
10390;DHT22;5241;47.830;12.972;2023-04-08T04:55:48;7.20;99.90
10390;DHT22;5241;47.830;12.972;2023-04-08T04:58:14;7.20;99.90
10390;DHT22;5241;47.830;12.972;2023-04-08T05:00:39;7.20;99.90
10390;DHT22;5241;47.830;12.972;2023-04-08T05:03:05;7.30;99.90
10390;DHT22;5241;47.830;12.972;2023-04-08T05:05:31;7.30;99.90
10390;DHT22;5241;47.830;12.972;2023-04-08T05:07:56;7.20;99.90
10390;DHT22;5241;47.830;12.972;2023-04-08T05:10:22;7.20;99.90
10390;DHT22;5241;47.830;12.972;2023-04-08T05:12:47;7.30;99.90
10390;DHT22;5241;47.830;12.972;2023-04-08T05:15:13;7.30;99.90
10390;DHT22;5241;47.830;12.972;2023-04-08T05:17:38;7.30;99.90
10390;DHT22;5241;47.830;12.972;2023-04-08T05:20:05;7.20;99.90
10390;DHT22;5241;47.830;12.972;2023-04-08T05:22:30;7.20;99.90
10390;DHT22;5241;47.830;12.972;2023-04-08T05:24:56;7.20;99.90
10390;DHT22;5241;47.830;12.972;2023-04-08T05:27:22;7.20;99.90
10390;DHT22;5241;47.830;12.972;2023-04-08T05:29:47;7.30;99.90
10390;DHT22;5241;47.830;12.972;2023-04-08T05:32:13;7.30;99.90
10390;DHT22;5241;47.830;12.972;2023-04-08T05:34:38;7.30;99.90
10390;DHT22;5241;47.830;12.972;2023-04-08T05:37:04;7.40;99.90
10390;DHT22;5241;47.830;12.972;2023-04-08T05:39:30;7.40;99.90
10390;DHT22;5241;47.830;12.972;2023-04-08T05:41:55;7.30;99.90
10390;DHT22;5241;47.830;12.972;2023-04-08T05:44:21;7.30;99.90
10390;DHT22;5241;47.830;12.972;2023-04-08T05:46:47;7.30;99.90
10390;DHT22;5241;47.830;12.972;2023-04-08T05:49:12;7.30;99.90
10390;DHT22;5241;47.830;12.972;2023-04-08T05:51:38;7.40;99.90
10390;DHT22;5241;47.830;12.972;2023-04-08T05:54:04;7.40;99.90
10390;DHT22;5241;47.830;12.972;2023-04-08T05:56:29;7.40;99.90
10390;DHT22;5241;47.830;12.972;2023-04-08T05:58:56;7.50;99.90
10390;DHT22;5241;47.830;12.972;2023-04-08T06:01:22;7.50;99.90
10390;DHT22;5241;47.830;12.972;2023-04-08T06:03:48;7.50;99.90
10390;DHT22;5241;47.830;12.972;2023-04-08T06:06:13;7.60;99.90
10390;DHT22;5241;47.830;12.972;2023-04-08T06:08:39;7.60;99.90
10390;DHT22;5241;47.830;12.972;2023-04-08T06:11:05;7.70;99.90
10390;DHT22;5241;47.830;12.972;2023-04-08T06:13:31;7.60;99.90
10390;DHT22;5241;47.830;12.972;2023-04-08T06:15:57;7.70;99.90
10390;DHT22;5241;47.830;12.972;2023-04-08T06:18:23;7.70;99.90
10390;DHT22;5241;47.830;12.972;2023-04-08T06:20:49;7.80;99.90
10390;DHT22;5241;47.830;12.972;2023-04-08T06:23:15;7.80;99.90
10390;DHT22;5241;47.830;12.972;2023-04-08T06:25:41;7.70;99.90
10390;DHT22;5241;47.830;12.972;2023-04-08T06:28:06;7.70;99.90
10390;DHT22;5241;47.830;12.972;2023-04-08T06:30:32;7.70;99.90
10390;DHT22;5241;47.830;12.972;2023-04-08T06:32:57;7.70;99.90
10390;DHT22;5241;47.830;12.972;2023-04-08T06:35:23;7.70;99.90
10390;DHT22;5241;47.830;12.972;2023-04-08T06:37:49;7.80;99.90
10390;DHT22;5241;47.830;12.972;2023-04-08T06:40:14;7.80;99.90
10390;DHT22;5241;47.830;12.972;2023-04-08T06:42:40;7.80;99.90
10390;DHT22;5241;47.830;12.972;2023-04-08T06:45:07;7.80;99.90
10390;DHT22;5241;47.830;12.972;2023-04-08T06:47:33;7.80;99.90
10390;DHT22;5241;47.830;12.972;2023-04-08T06:49:59;7.80;99.90
10390;DHT22;5241;47.830;12.972;2023-04-08T06:52:24;7.90;99.90
10390;DHT22;5241;47.830;12.972;2023-04-08T06:54:50;7.90;99.90
10390;DHT22;5241;47.830;12.972;2023-04-08T06:57:16;7.90;99.90
10390;DHT22;5241;47.830;12.972;2023-04-08T06:59:41;7.80;99.90
10390;DHT22;5241;47.830;12.972;2023-04-08T07:02:07;7.80;99.90
10390;DHT22;5241;47.830;12.972;2023-04-08T07:04:32;7.80;99.90
10390;DHT22;5241;47.830;12.972;2023-04-08T07:06:58;7.80;99.90
10390;DHT22;5241;47.830;12.972;2023-04-08T07:09:23;7.60;99.90
10390;DHT22;5241;47.830;12.972;2023-04-08T07:11:49;7.60;99.90
10390;DHT22;5241;47.830;12.972;2023-04-08T07:14:15;7.50;99.90
10390;DHT22;5241;47.830;12.972;2023-04-08T07:16:40;7.40;99.90
10390;DHT22;5241;47.830;12.972;2023-04-08T07:19:06;7.30;99.90
10390;DHT22;5241;47.830;12.972;2023-04-08T07:21:31;7.20;99.90
10390;DHT22;5241;47.830;12.972;2023-04-08T07:23:57;7.30;99.90
10390;DHT22;5241;47.830;12.972;2023-04-08T07:26:22;7.10;99.90
10390;DHT22;5241;47.830;12.972;2023-04-08T07:28:48;7.00;99.90
10390;DHT22;5241;47.830;12.972;2023-04-08T07:31:15;7.00;99.90
10390;DHT22;5241;47.830;12.972;2023-04-08T07:33:41;6.90;99.90
10390;DHT22;5241;47.830;12.972;2023-04-08T07:36:08;6.80;99.90
10390;DHT22;5241;47.830;12.972;2023-04-08T07:38:34;6.70;99.90
10390;DHT22;5241;47.830;12.972;2023-04-08T07:40:59;6.70;99.90
10390;DHT22;5241;47.830;12.972;2023-04-08T07:43:25;6.70;99.90
10390;DHT22;5241;47.830;12.972;2023-04-08T07:45:51;6.60;99.90
10390;DHT22;5241;47.830;12.972;2023-04-08T07:48:16;6.50;99.90
10390;DHT22;5241;47.830;12.972;2023-04-08T07:50:42;6.40;99.90
10390;DHT22;5241;47.830;12.972;2023-04-08T07:53:07;6.30;99.90
10390;DHT22;5241;47.830;12.972;2023-04-08T07:55:34;6.40;99.90
10390;DHT22;5241;47.830;12.972;2023-04-08T07:57:59;6.40;99.90
10390;DHT22;5241;47.830;12.972;2023-04-08T08:00:26;6.40;99.90
10390;DHT22;5241;47.830;12.972;2023-04-08T08:02:51;6.50;99.90
10390;DHT22;5241;47.830;12.972;2023-04-08T08:05:17;6.50;99.90
10390;DHT22;5241;47.830;12.972;2023-04-08T08:07:42;6.50;99.90
10390;DHT22;5241;47.830;12.972;2023-04-08T08:10:08;6.50;99.90
10390;DHT22;5241;47.830;12.972;2023-04-08T08:12:35;6.50;99.90
10390;DHT22;5241;47.830;12.972;2023-04-08T08:15:01;6.50;99.90
10390;DHT22;5241;47.830;12.972;2023-04-08T08:17:26;6.50;99.90
10390;DHT22;5241;47.830;12.972;2023-04-08T08:19:54;6.40;99.90
10390;DHT22;5241;47.830;12.972;2023-04-08T08:22:20;6.50;99.90
10390;DHT22;5241;47.830;12.972;2023-04-08T08:24:45;6.50;99.90
10390;DHT22;5241;47.830;12.972;2023-04-08T08:27:11;6.40;99.90
10390;DHT22;5241;47.830;12.972;2023-04-08T08:29:37;6.40;99.90
10390;DHT22;5241;47.830;12.972;2023-04-08T08:32:03;6.30;99.90
10390;DHT22;5241;47.830;12.972;2023-04-08T08:34:29;6.30;99.90
10390;DHT22;5241;47.830;12.972;2023-04-08T08:36:54;6.30;99.90
10390;DHT22;5241;47.830;12.972;2023-04-08T08:39:20;6.30;99.90
10390;DHT22;5241;47.830;12.972;2023-04-08T08:41:46;6.30;99.90
10390;DHT22;5241;47.830;12.972;2023-04-08T08:44:12;6.30;99.90
10390;DHT22;5241;47.830;12.972;2023-04-08T08:46:42;6.20;99.90
10390;DHT22;5241;47.830;12.972;2023-04-08T08:49:08;6.10;99.90
10390;DHT22;5241;47.830;12.972;2023-04-08T08:51:35;6.00;99.90
10390;DHT22;5241;47.830;12.972;2023-04-08T08:54:03;5.90;99.90
10390;DHT22;5241;47.830;12.972;2023-04-08T08:56:29;6.00;99.90
10390;DHT22;5241;47.830;12.972;2023-04-08T08:58:56;5.90;99.90
10390;DHT22;5241;47.830;12.972;2023-04-08T09:01:33;5.80;99.90
10390;DHT22;5241;47.830;12.972;2023-04-08T09:04:16;5.70;99.90
10390;DHT22;5241;47.830;12.972;2023-04-08T09:06:43;5.70;99.90
10390;DHT22;5241;47.830;12.972;2023-04-08T09:09:09;5.70;99.90
10390;DHT22;5241;47.830;12.972;2023-04-08T09:11:40;5.70;99.90
10390;DHT22;5241;47.830;12.972;2023-04-08T09:14:23;5.70;99.90
10390;DHT22;5241;47.830;12.972;2023-04-08T09:16:50;5.70;99.90
10390;DHT22;5241;47.830;12.972;2023-04-08T09:19:16;5.60;99.90
10390;DHT22;5241;47.830;12.972;2023-04-08T09:21:42;5.60;99.90
10390;DHT22;5241;47.830;12.972;2023-04-08T09:24:08;5.60;99.90
10390;DHT22;5241;47.830;12.972;2023-04-08T09:26:35;5.60;99.90
10390;DHT22;5241;47.830;12.972;2023-04-08T09:29:07;5.50;99.90
10390;DHT22;5241;47.830;12.972;2023-04-08T09:31:38;5.50;99.90
10390;DHT22;5241;47.830;12.972;2023-04-08T09:34:11;5.40;99.90
10390;DHT22;5241;47.830;12.972;2023-04-08T09:36:37;5.40;99.90
10390;DHT22;5241;47.830;12.972;2023-04-08T09:39:04;5.20;99.90
10390;DHT22;5241;47.830;12.972;2023-04-08T09:41:33;5.20;99.90
10390;DHT22;5241;47.830;12.972;2023-04-08T09:43:59;5.20;99.90
10390;DHT22;5241;47.830;12.972;2023-04-08T09:46:39;5.20;99.90
10390;DHT22;5241;47.830;12.972;2023-04-08T09:49:08;5.10;99.90
10390;DHT22;5241;47.830;12.972;2023-04-08T09:51:48;5.10;99.90
10390;DHT22;5241;47.830;12.972;2023-04-08T09:54:18;5.00;99.90
10390;DHT22;5241;47.830;12.972;2023-04-08T09:57:00;5.00;99.90
10390;DHT22;5241;47.830;12.972;2023-04-08T09:59:30;5.00;99.90
10390;DHT22;5241;47.830;12.972;2023-04-08T10:02:02;5.00;99.90
10390;DHT22;5241;47.830;12.972;2023-04-08T10:04:30;5.00;99.90
10390;DHT22;5241;47.830;12.972;2023-04-08T10:07:03;5.00;99.90
10390;DHT22;5241;47.830;12.972;2023-04-08T10:09:29;5.10;99.90
10390;DHT22;5241;47.830;12.972;2023-04-08T10:11:57;5.10;99.90
10390;DHT22;5241;47.830;12.972;2023-04-08T10:14:22;5.10;99.90
10390;DHT22;5241;47.830;12.972;2023-04-08T10:16:48;5.30;99.90
10390;DHT22;5241;47.830;12.972;2023-04-08T10:19:36;5.30;99.90
10390;DHT22;5241;47.830;12.972;2023-04-08T10:22:47;5.30;99.90
10390;DHT22;5241;47.830;12.972;2023-04-08T10:27:42;5.50;99.90
10390;DHT22;5241;47.830;12.972;2023-04-08T10:32:58;5.60;99.90
10390;DHT22;5241;47.830;12.972;2023-04-08T10:35:31;5.60;99.90
10390;DHT22;5241;47.830;12.972;2023-04-08T10:37:59;5.70;99.90
10390;DHT22;5241;47.830;12.972;2023-04-08T10:40:25;5.50;99.90
10390;DHT22;5241;47.830;12.972;2023-04-08T10:42:57;5.60;99.90
10390;DHT22;5241;47.830;12.972;2023-04-08T10:45:23;5.50;99.90
10390;DHT22;5241;47.830;12.972;2023-04-08T10:47:49;5.40;99.90
10390;DHT22;5241;47.830;12.972;2023-04-08T10:50:16;5.40;99.90
10390;DHT22;5241;47.830;12.972;2023-04-08T10:52:49;5.40;99.90
10390;DHT22;5241;47.830;12.972;2023-04-08T10:55:24;5.30;99.90
10390;DHT22;5241;47.830;12.972;2023-04-08T10:57:51;5.30;99.90
10390;DHT22;5241;47.830;12.972;2023-04-08T11:00:17;5.30;99.90
10390;DHT22;5241;47.830;12.972;2023-04-08T11:02:43;5.30;99.90
10390;DHT22;5241;47.830;12.972;2023-04-08T11:05:11;5.40;99.90
10390;DHT22;5241;47.830;12.972;2023-04-08T11:07:40;5.40;99.90
10390;DHT22;5241;47.830;12.972;2023-04-08T11:10:07;5.60;99.90
10390;DHT22;5241;47.830;12.972;2023-04-08T11:12:34;5.70;99.90
10390;DHT22;5241;47.830;12.972;2023-04-08T11:15:01;5.80;99.90
10390;DHT22;5241;47.830;12.972;2023-04-08T11:17:27;5.90;99.90
10390;DHT22;5241;47.830;12.972;2023-04-08T11:19:53;5.70;99.90
10390;DHT22;5241;47.830;12.972;2023-04-08T11:22:19;5.70;99.90
10390;DHT22;5241;47.830;12.972;2023-04-08T11:24:45;5.60;99.90
10390;DHT22;5241;47.830;12.972;2023-04-08T11:27:11;5.50;99.90
10390;DHT22;5241;47.830;12.972;2023-04-08T11:29:37;5.50;99.90
10390;DHT22;5241;47.830;12.972;2023-04-08T11:32:03;5.50;99.90
10390;DHT22;5241;47.830;12.972;2023-04-08T11:34:28;5.60;99.90
10390;DHT22;5241;47.830;12.972;2023-04-08T11:36:55;5.70;99.90
10390;DHT22;5241;47.830;12.972;2023-04-08T11:39:22;5.60;99.90
10390;DHT22;5241;47.830;12.972;2023-04-08T11:41:48;5.60;99.90
10390;DHT22;5241;47.830;12.972;2023-04-08T11:44:14;5.60;99.90
10390;DHT22;5241;47.830;12.972;2023-04-08T11:46:40;5.60;99.90
10390;DHT22;5241;47.830;12.972;2023-04-08T11:49:07;5.60;99.90
10390;DHT22;5241;47.830;12.972;2023-04-08T11:51:34;5.70;99.90
10390;DHT22;5241;47.830;12.972;2023-04-08T11:54:05;5.60;99.90
10390;DHT22;5241;47.830;12.972;2023-04-08T11:56:43;5.70;99.90
10390;DHT22;5241;47.830;12.972;2023-04-08T11:59:10;5.70;99.90
10390;DHT22;5241;47.830;12.972;2023-04-08T12:01:35;5.70;99.90
10390;DHT22;5241;47.830;12.972;2023-04-08T12:04:01;5.80;99.90
10390;DHT22;5241;47.830;12.972;2023-04-08T12:06:27;5.80;99.90
10390;DHT22;5241;47.830;12.972;2023-04-08T12:08:54;5.70;99.90
10390;DHT22;5241;47.830;12.972;2023-04-08T12:11:20;5.70;99.90
10390;DHT22;5241;47.830;12.972;2023-04-08T12:13:46;5.80;99.90
10390;DHT22;5241;47.830;12.972;2023-04-08T12:16:13;5.80;99.90
10390;DHT22;5241;47.830;12.972;2023-04-08T12:18:39;5.90;99.90
10390;DHT22;5241;47.830;12.972;2023-04-08T12:21:05;5.90;99.90
10390;DHT22;5241;47.830;12.972;2023-04-08T12:23:30;5.90;99.90
10390;DHT22;5241;47.830;12.972;2023-04-08T12:25:56;5.70;99.90
10390;DHT22;5241;47.830;12.972;2023-04-08T12:28:22;5.80;99.90
10390;DHT22;5241;47.830;12.972;2023-04-08T12:30:48;5.80;99.90
10390;DHT22;5241;47.830;12.972;2023-04-08T12:33:13;5.80;99.90
10390;DHT22;5241;47.830;12.972;2023-04-08T12:35:39;5.70;99.90
10390;DHT22;5241;47.830;12.972;2023-04-08T12:38:04;5.70;99.90
10390;DHT22;5241;47.830;12.972;2023-04-08T12:40:30;5.70;99.90
10390;DHT22;5241;47.830;12.972;2023-04-08T12:42:55;5.70;99.90
10390;DHT22;5241;47.830;12.972;2023-04-08T12:45:21;5.70;99.90
10390;DHT22;5241;47.830;12.972;2023-04-08T12:47:47;5.60;99.90
10390;DHT22;5241;47.830;12.972;2023-04-08T12:50:12;5.60;99.90
10390;DHT22;5241;47.830;12.972;2023-04-08T12:52:39;5.70;99.90
10390;DHT22;5241;47.830;12.972;2023-04-08T12:55:05;5.60;99.90
10390;DHT22;5241;47.830;12.972;2023-04-08T12:57:31;5.70;99.90
10390;DHT22;5241;47.830;12.972;2023-04-08T12:59:56;5.60;99.90
10390;DHT22;5241;47.830;12.972;2023-04-08T13:02:22;5.60;99.90
10390;DHT22;5241;47.830;12.972;2023-04-08T13:04:49;5.60;99.90
10390;DHT22;5241;47.830;12.972;2023-04-08T13:07:17;5.60;99.90
10390;DHT22;5241;47.830;12.972;2023-04-08T13:09:43;5.60;99.90
10390;DHT22;5241;47.830;12.972;2023-04-08T13:12:08;5.50;99.90
10390;DHT22;5241;47.830;12.972;2023-04-08T13:14:36;5.40;99.90
10390;DHT22;5241;47.830;12.972;2023-04-08T13:17:02;5.40;99.90
10390;DHT22;5241;47.830;12.972;2023-04-08T13:19:28;5.40;99.90
10390;DHT22;5241;47.830;12.972;2023-04-08T13:21:53;5.40;99.90
10390;DHT22;5241;47.830;12.972;2023-04-08T13:24:19;5.40;99.90
10390;DHT22;5241;47.830;12.972;2023-04-08T13:26:45;5.40;99.90
10390;DHT22;5241;47.830;12.972;2023-04-08T13:29:10;5.40;99.90
10390;DHT22;5241;47.830;12.972;2023-04-08T13:31:36;5.40;99.90
10390;DHT22;5241;47.830;12.972;2023-04-08T13:34:02;5.30;99.90
10390;DHT22;5241;47.830;12.972;2023-04-08T13:36:28;5.30;99.90
10390;DHT22;5241;47.830;12.972;2023-04-08T13:38:53;5.40;99.90
10390;DHT22;5241;47.830;12.972;2023-04-08T13:41:19;5.20;99.90
10390;DHT22;5241;47.830;12.972;2023-04-08T13:43:49;5.10;99.90
10390;DHT22;5241;47.830;12.972;2023-04-08T13:46:15;5.00;99.90
10390;DHT22;5241;47.830;12.972;2023-04-08T13:48:40;5.00;99.90
10390;DHT22;5241;47.830;12.972;2023-04-08T13:51:06;5.00;99.90
10390;DHT22;5241;47.830;12.972;2023-04-08T13:53:31;5.00;99.90
10390;DHT22;5241;47.830;12.972;2023-04-08T13:55:57;5.10;99.90
10390;DHT22;5241;47.830;12.972;2023-04-08T13:58:24;5.20;99.90
10390;DHT22;5241;47.830;12.972;2023-04-08T14:00:51;5.20;99.90
10390;DHT22;5241;47.830;12.972;2023-04-08T14:03:17;5.30;99.90
10390;DHT22;5241;47.830;12.972;2023-04-08T14:05:42;5.30;99.90
10390;DHT22;5241;47.830;12.972;2023-04-08T14:08:09;5.30;99.90
10390;DHT22;5241;47.830;12.972;2023-04-08T14:10:35;5.40;99.90
10390;DHT22;5241;47.830;12.972;2023-04-08T14:13:01;5.50;99.90
10390;DHT22;5241;47.830;12.972;2023-04-08T14:15:26;5.50;99.90
10390;DHT22;5241;47.830;12.972;2023-04-08T14:17:52;5.60;99.90
10390;DHT22;5241;47.830;12.972;2023-04-08T14:20:17;5.60;99.90
10390;DHT22;5241;47.830;12.972;2023-04-08T14:22:43;5.50;99.90
10390;DHT22;5241;47.830;12.972;2023-04-08T14:25:08;5.40;99.90
10390;DHT22;5241;47.830;12.972;2023-04-08T14:27:34;5.50;99.90
10390;DHT22;5241;47.830;12.972;2023-04-08T14:30:00;5.50;99.90
10390;DHT22;5241;47.830;12.972;2023-04-08T14:32:25;5.40;99.90
10390;DHT22;5241;47.830;12.972;2023-04-08T14:34:51;5.30;99.90
10390;DHT22;5241;47.830;12.972;2023-04-08T14:37:16;5.40;99.90
10390;DHT22;5241;47.830;12.972;2023-04-08T14:39:43;5.50;99.90
10390;DHT22;5241;47.830;12.972;2023-04-08T14:42:09;5.50;99.90
10390;DHT22;5241;47.830;12.972;2023-04-08T14:44:34;5.40;99.90
10390;DHT22;5241;47.830;12.972;2023-04-08T14:47:00;5.50;99.90
10390;DHT22;5241;47.830;12.972;2023-04-08T14:49:26;5.50;99.90
10390;DHT22;5241;47.830;12.972;2023-04-08T14:51:51;5.50;99.90
10390;DHT22;5241;47.830;12.972;2023-04-08T14:54:17;5.50;99.90
10390;DHT22;5241;47.830;12.972;2023-04-08T14:56:43;5.40;99.90
10390;DHT22;5241;47.830;12.972;2023-04-08T14:59:09;5.30;99.90
10390;DHT22;5241;47.830;12.972;2023-04-08T15:01:34;5.30;99.90
10390;DHT22;5241;47.830;12.972;2023-04-08T15:04:00;5.20;99.90
10390;DHT22;5241;47.830;12.972;2023-04-08T15:06:26;5.20;99.90
10390;DHT22;5241;47.830;12.972;2023-04-08T15:08:52;5.20;99.90
10390;DHT22;5241;47.830;12.972;2023-04-08T15:11:18;5.20;99.90
10390;DHT22;5241;47.830;12.972;2023-04-08T15:13:45;5.20;99.90
10390;DHT22;5241;47.830;12.972;2023-04-08T15:16:11;5.20;99.90
10390;DHT22;5241;47.830;12.972;2023-04-08T15:18:36;5.10;99.90
10390;DHT22;5241;47.830;12.972;2023-04-08T15:21:02;5.10;99.90
10390;DHT22;5241;47.830;12.972;2023-04-08T15:23:27;5.20;99.90
10390;DHT22;5241;47.830;12.972;2023-04-08T15:25:55;5.20;99.90
10390;DHT22;5241;47.830;12.972;2023-04-08T15:28:21;5.20;99.90
10390;DHT22;5241;47.830;12.972;2023-04-08T15:30:48;5.10;99.90
10390;DHT22;5241;47.830;12.972;2023-04-08T15:33:14;5.10;99.90
10390;DHT22;5241;47.830;12.972;2023-04-08T15:35:39;5.10;99.90
10390;DHT22;5241;47.830;12.972;2023-04-08T15:38:05;5.10;99.90
10390;DHT22;5241;47.830;12.972;2023-04-08T15:40:32;5.10;99.90
10390;DHT22;5241;47.830;12.972;2023-04-08T15:42:58;5.10;99.90
10390;DHT22;5241;47.830;12.972;2023-04-08T15:45:24;5.10;99.90
10390;DHT22;5241;47.830;12.972;2023-04-08T15:47:50;5.10;99.90
10390;DHT22;5241;47.830;12.972;2023-04-08T15:50:16;5.10;99.90
10390;DHT22;5241;47.830;12.972;2023-04-08T15:52:42;5.10;99.90
10390;DHT22;5241;47.830;12.972;2023-04-08T15:55:08;5.00;99.90
10390;DHT22;5241;47.830;12.972;2023-04-08T15:57:34;4.90;99.90